Main page
METAR-TAF:

METAR-TAF

Airports :

Pointe-à-Pitre International Airport

Pointe-à-Pitre, Guadeloupe

latitude: 16-16N, longitude: 061-31W, elevation: 11 m

Current weather observation

The report was made 13 minutes ago, at 08:00 UTC
Wind 5 kt from the East
Temperature 23°C
Humidity 83%
Pressure 1014 hPa
Visibility 10 km or more
no clouds below 1500 m and no cumulonimbus

METAR: TFFR 200800Z AUTO 09005KT CAVOK 23/20 Q1014 NOSIG

Time: 04:13 (08:13 UTC)

Forecast

The report was made 4 hours and 13 minutes ago, at 04:00 UTC
Forecast valid from 20 at 06 UTC to 21 at 06 UTC
Wind 8 kt from the East
Visibility 10 km or more
Few clouds at a height of 2600 ft
Broken clouds at a height of 4300 ft
Temporary
from 20 at 12 UTC to 20 at 20 UTC
Visibility: 4000 m
Broken clouds at a height of 1800 ft, Towering cumulus.
rain showers

TAF: TFFR 200400Z 2006/2106 08008KT 9999 FEW026 BKN043 TEMPO 2012/2020 4000 SHRA BKN018TCU

Weather observations and forecasts of more than 4000 airports (METAR and TAF reports).

The available stations are represented by yellow and red dots on the map.

Hover mouse over dot to see the name of the station.

Then click to see weather observations and forecasts.

To change the map : click on the green buttons with a black cross to zoom in, on the green button with a dash to zoom out, or on the green arrows for adjacent maps.


METAR-TAF: